Time;durP1;ratioP1;P1;durP2;ratioP2;P2;SDS_P1;SDS_P2;PMS_P1;PMS_P2;Temp;Humidity;BMP_temperature;BMP_pressure;BME280_temperature;BME280_humidity;BME280_pressure;Samples;Min_cycle;Max_cycle;Signal;HPM_P1;HPM_P2
2023/06/01 07:38:58;;;;;;;20.67;8.60;;;;;;;-142.57;38.50;115900.28;4992260;23;20053;-81
2023/06/01 07:41:23;;;;;;;29.10;9.30;;;;;;;-142.57;36.61;115900.28;4896824;29;20505;-81
2023/06/01 07:43:49;;;;;;;37.42;10.52;;;;;;;-142.57;37.22;115900.28;4892382;29;20057;-85
2023/06/01 07:46:14;;;;;;;20.42;8.45;;;;;;;-142.57;34.46;115900.28;4889347;29;20038;-84
2023/06/01 07:48:40;;;;;;;22.27;8.75;;;;;;;-142.57;34.43;115900.28;4872392;29;20049;-87
2023/06/01 07:51:06;;;;;;;36.97;10.55;;;;;;;-142.57;36.50;115900.28;4871062;29;20040;-83
2023/06/01 07:53:32;;;;;;;27.48;9.88;;;;;;;-142.57;37.46;115900.28;4848080;29;21133;-85
2023/06/01 07:55:58;;;;;;;25.50;8.60;;;;;;;-142.57;37.18;115900.28;4846094;29;20398;-83
2023/06/01 07:58:23;;;;;;;23.23;7.35;;;;;;;-142.57;37.14;115900.28;4878456;29;20097;-85
2023/06/01 08:00:49;;;;;;;15.23;7.82;;;;;;;-142.57;35.48;115900.28;4879297;29;20037;-80
2023/06/01 08:03:15;;;;;;;25.20;8.55;;;;;;;-142.57;36.49;115900.28;4876988;29;20041;-84
2023/06/01 08:05:44;;;;;;;10.95;6.75;;;;;;;-142.57;34.17;115900.28;4877705;29;20045;-85
2023/06/01 08:08:10;;;;;;;13.73;7.13;;;;;;;-142.57;34.74;115900.28;4875978;29;20045;-82
2023/06/01 08:10:38;;;;;;;13.23;7.40;;;;;;;-142.57;35.19;115900.28;4859368;29;20827;-84
2023/06/01 08:13:07;;;;;;;13.00;7.50;;;;;;;-142.57;36.72;115900.28;4860824;29;20036;-83
2023/06/01 08:15:36;;;;;;;13.25;7.70;;;;;;;-142.57;35.77;115900.28;4877480;29;20037;-83
2023/06/01 08:18:02;;;;;;;13.32;7.55;;;;;;;-142.57;37.54;115900.28;4860068;29;20143;-84
2023/06/01 08:20:27;;;;;;;18.77;6.95;;;;;;;-142.57;36.43;115900.28;4875600;29;20044;-82
2023/06/01 08:22:53;;;;;;;11.90;7.45;;;;;;;-142.57;35.76;115900.28;4859850;29;20093;-84
2023/06/01 08:25:19;;;;;;;15.95;7.63;;;;;;;-142.57;36.65;115900.28;4875966;29;20084;-82
2023/06/01 08:27:44;;;;;;;13.48;7.20;;;;;;;-142.57;35.33;115900.28;4874154;29;20033;-82
2023/06/01 08:30:11;;;;;;;16.52;7.60;;;;;;;-142.57;35.67;115900.28;4876751;29;20080;-86
2023/06/01 08:32:39;;;;;;;12.82;6.57;;;;;;;-142.57;36.54;115900.28;4875711;29;20315;-83
2023/06/01 08:35:08;;;;;;;17.92;7.78;;;;;;;-142.57;35.64;115900.28;4877337;29;20045;-83
2023/06/01 08:37:35;;;;;;;17.15;6.85;;;;;;;-142.57;35.71;115900.28;4875118;29;20053;-85
2023/06/01 08:40:00;;;;;;;14.43;7.43;;;;;;;-142.57;34.96;115900.28;4874493;29;20073;-84
2023/06/01 08:42:34;;;;;;;10.80;7.25;;;;;;;-142.57;35.63;115900.28;4874431;29;20095;-87
2023/06/01 08:45:04;;;;;;;13.48;7.00;;;;;;;-142.57;34.67;115900.28;4873942;29;20033;-83
2023/06/01 08:47:31;;;;;;;11.95;6.40;;;;;;;-142.57;34.49;115900.28;4871148;29;20111;-88
2023/06/01 08:49:58;;;;;;;9.95;6.07;;;;;;;-142.57;32.61;115900.28;4870800;29;20029;-83
2023/06/01 08:52:31;;;;;;;14.18;7.70;;;;;;;-142.57;34.68;115900.28;4873452;29;20045;-84
2023/06/01 08:55:03;;;;;;;17.15;7.50;;;;;;;-142.57;34.93;115900.28;4858237;29;20127;-83
2023/06/01 08:57:29;;;;;;;13.60;6.95;;;;;;;-142.57;34.21;115900.28;4874277;29;20048;-82
2023/06/01 08:59:55;;;;;;;18.23;7.25;;;;;;;-142.57;34.73;115900.28;4874764;29;20037;-81
2023/06/01 09:02:22;;;;;;;15.07;7.72;;;;;;;-142.57;34.25;115900.28;4874354;29;20072;-83
2023/06/01 09:04:48;;;;;;;13.35;6.63;;;;;;;-142.57;34.13;115900.28;4874672;29;20029;-82
2023/06/01 09:07:14;;;;;;;13.68;7.35;;;;;;;-142.57;34.10;115900.28;4873087;29;20045;-83
2023/06/01 09:09:39;;;;;;;12.80;7.20;;;;;;;-142.57;36.13;115900.28;4878425;29;20101;-82
2023/06/01 09:12:25;;;;;;;18.77;6.50;;;;;;;-142.57;36.82;115900.28;4878319;29;20033;-87
2023/06/01 09:15:16;;;;;;;15.27;6.88;;;;;;;-142.57;35.50;115900.28;4875737;29;20534;-84
2023/06/01 09:17:46;;;;;;;14.57;7.43;;;;;;;-142.57;35.26;115900.28;4875669;29;20065;-82
2023/06/01 09:20:23;;;;;;;13.90;7.47;;;;;;;-142.57;34.77;115900.28;4878010;29;20045;-82
2023/06/01 09:22:49;;;;;;;12.55;6.43;;;;;;;-142.57;35.54;115900.28;4873163;29;20040;-81
2023/06/01 09:25:15;;;;;;;13.73;6.53;;;;;;;-142.57;34.63;115900.28;4875443;29;20033;-81
2023/06/01 09:27:46;;;;;;;12.95;7.53;;;;;;;-142.57;34.99;115900.28;4859742;29;20044;-86
2023/06/01 09:30:13;;;;;;;11.40;6.97;;;;;;;-142.57;35.93;115900.28;4875789;29;20068;-86
2023/06/01 09:32:38;;;;;;;14.23;7.68;;;;;;;-142.57;35.37;115900.28;4875011;29;20041;-84
2023/06/01 09:35:07;;;;;;;13.15;6.15;;;;;;;-142.57;34.68;115900.28;4875915;29;20132;-82
2023/06/01 09:37:33;;;;;;;15.65;6.88;;;;;;;-142.57;35.39;115900.28;4875870;29;20401;-80
2023/06/01 09:39:58;;;;;;;17.48;6.63;;;;;;;-142.57;35.30;115900.28;4873465;29;20053;-82
2023/06/01 09:42:37;;;;;;;17.35;6.95;;;;;;;-142.57;36.46;115900.28;4873898;29;20124;-85
2023/06/01 09:45:21;;;;;;;12.27;8.00;;;;;;;-142.57;35.38;115900.28;4873996;29;20037;-86
2023/06/01 09:47:48;;;;;;;12.25;6.85;;;;;;;-142.57;34.87;115900.28;4874284;29;20516;-85
2023/06/01 09:50:33;;;;;;;14.90;7.72;;;;;;;-142.57;35.76;115900.28;4856192;29;20068;-83
2023/06/01 09:52:59;;;;;;;13.80;6.80;;;;;;;-142.57;36.31;115900.28;4872980;29;20080;-83
2023/06/01 09:55:25;;;;;;;13.63;7.60;;;;;;;-142.57;36.14;115900.28;4873110;29;20028;-83
2023/06/01 09:57:51;;;;;;;12.50;6.97;;;;;;;-142.57;37.00;115900.28;4873282;29;20430;-85
2023/06/01 10:00:27;;;;;;;13.85;7.20;;;;;;;-142.57;37.25;115900.28;4873523;29;20045;-81
2023/06/01 10:02:53;;;;;;;15.82;8.48;;;;;;;-142.57;37.07;115900.28;4859808;29;20224;-81
2023/06/01 10:05:20;;;;;;;11.85;6.68;;;;;;;-142.57;37.00;115900.28;4880493;29;20029;-82
2023/06/01 10:07:47;;;;;;;13.73;7.43;;;;;;;-142.57;37.59;115900.28;4879573;29;20390;-82
2023/06/01 10:10:15;;;;;;;16.20;7.22;;;;;;;-142.57;37.59;115900.28;4863296;29;20040;-80
2023/06/01 10:12:40;;;;;;;15.82;7.13;;;;;;;-142.57;37.83;115900.28;4879860;29;20041;-84
2023/06/01 10:15:07;;;;;;;11.63;6.35;;;;;;;-142.57;37.60;115900.28;4880632;29;20041;-87
2023/06/01 10:17:42;;;;;;;12.13;6.10;;;;;;;-142.57;36.49;115900.28;4868016;29;20065;-87
2023/06/01 10:20:11;;;;;;;17.40;6.78;;;;;;;-142.57;36.05;115900.28;4862854;29;20112;-85
2023/06/01 10:22:41;;;;;;;11.65;6.72;;;;;;;-142.57;35.57;115900.28;4880138;29;20107;-83
2023/06/01 10:25:10;;;;;;;14.07;7.15;;;;;;;-142.57;36.59;115900.28;4881323;29;20041;-86
2023/06/01 10:27:41;;;;;;;10.38;6.72;;;;;;;-142.57;37.59;115900.28;4864952;29;20147;-81
2023/06/01 10:30:08;;;;;;;11.68;7.10;;;;;;;-142.57;37.19;115900.28;4866829;29;20068;-82
2023/06/01 10:32:40;;;;;;;12.23;7.45;;;;;;;-142.57;36.75;115900.28;4864706;29;20072;-82
2023/06/01 10:35:06;;;;;;;11.38;6.75;;;;;;;-142.57;36.23;115900.28;4865077;29;20044;-82
2023/06/01 10:37:33;;;;;;;14.30;7.20;;;;;;;-142.57;36.73;115900.28;4863856;29;20049;-83
2023/06/01 10:40:23;;;;;;;11.23;6.30;;;;;;;-142.57;36.23;115900.28;4849737;29;20513;-83
2023/06/01 10:42:54;;;;;;;19.52;6.60;;;;;;;-142.57;35.30;115900.28;4863584;29;20041;-84
2023/06/01 10:45:43;;;;;;;14.25;6.10;;;;;;;-142.57;34.79;115900.28;4863418;29;20490;-84
2023/06/01 10:48:12;;;;;;;22.55;5.70;;;;;;;-142.57;35.52;115900.28;4878495;29;20029;-80
2023/06/01 10:50:40;;;;;;;14.75;6.63;;;;;;;-142.57;34.42;115900.28;4880303;29;20427;-83
2023/06/01 10:53:27;;;;;;;15.98;6.55;;;;;;;-142.57;33.48;115900.28;4880327;29;20032;-84
2023/06/01 10:56:17;;;;;;;11.40;6.55;;;;;;;-142.57;35.05;115900.28;4880782;29;20041;-84
2023/06/01 10:58:43;;;;;;;16.77;6.50;;;;;;;-142.57;35.63;115900.28;4862529;29;20421;-81
2023/06/01 11:01:17;;;;;;;12.63;6.40;;;;;;;-142.57;35.23;115900.28;4877310;29;20033;-83
2023/06/01 11:03:45;;;;;;;12.40;7.35;;;;;;;-142.57;35.03;115900.28;4883372;29;20037;-81
2023/06/01 11:06:30;;;;;;;10.63;6.40;;;;;;;-142.57;34.26;115900.28;4889554;29;20041;-85
2023/06/01 11:08:58;;;;;;;12.07;6.15;;;;;;;-142.57;33.76;115900.28;4886475;29;20039;-87
2023/06/01 11:11:55;;;;;;;12.50;7.15;;;;;;;-142.57;33.69;115900.28;4869372;29;20041;-86
2023/06/01 11:15:00;;;;;;;13.75;7.47;;;;;;;-142.57;33.97;115900.28;4880132;29;20041;-84
2023/06/01 11:17:28;;;;;;;15.90;8.00;;;;;;;-142.57;34.75;115900.28;4880055;29;20041;-85
2023/06/01 11:20:06;;;;;;;14.40;6.63;;;;;;;-142.57;35.00;115900.28;4883937;29;20044;-84
2023/06/01 11:22:37;;;;;;;18.15;7.47;;;;;;;-142.57;34.87;115900.28;4885302;29;20037;-87
2023/06/01 11:25:07;;;;;;;11.60;6.90;;;;;;;-142.57;34.85;115900.28;4884113;29;20033;-87
2023/06/01 11:27:33;;;;;;;14.82;6.95;;;;;;;-142.57;35.16;115900.28;4885707;29;20100;-83
2023/06/01 11:29:59;;;;;;;14.52;7.00;;;;;;;-142.57;35.53;115900.28;4884642;29;20076;-86
2023/06/01 11:32:27;;;;;;;14.77;7.13;;;;;;;-142.57;34.93;115900.28;4867354;29;20525;-83
2023/06/01 11:34:55;;;;;;;16.05;7.00;;;;;;;-142.57;35.22;115900.28;4890927;29;20047;-88
2023/06/01 11:37:21;;;;;;;16.35;6.85;;;;;;;-142.57;35.79;115900.28;4851900;29;20060;-84
2023/06/01 11:39:47;;;;;;;12.57;6.72;;;;;;;-142.57;36.68;115900.28;4883744;29;20033;-87
2023/06/01 11:42:34;;;;;;;14.85;6.80;;;;;;;-142.57;36.77;115900.28;4890136;29;20037;-88
2023/06/01 11:45:00;;;;;;;13.02;7.75;;;;;;;-142.57;37.59;115900.28;4876379;29;20654;-87
2023/06/01 11:47:30;;;;;;;16.15;7.28;;;;;;;-142.57;38.31;115900.28;4845017;29;20045;-87
2023/06/01 11:49:56;;;;;;;12.27;7.13;;;;;;;-142.57;38.47;115900.28;4857579;29;20049;-87
2023/06/01 11:52:22;;;;;;;13.35;7.63;;;;;;;-142.57;38.52;115900.28;4860519;29;20443;-85
2023/06/01 11:54:49;;;;;;;12.98;7.28;;;;;;;-142.57;38.39;115900.28;4876856;29;20389;-87
2023/06/01 11:57:15;;;;;;;16.45;8.02;;;;;;;-142.57;37.91;115900.28;4882229;29;20033;-86
2023/06/01 11:59:41;;;;;;;15.57;7.55;;;;;;;-142.57;38.15;115900.28;4866857;29;20397;-88
2023/06/01 12:02:26;;;;;;;12.93;6.82;;;;;;;-142.57;38.46;115900.28;4883353;29;20078;-83
2023/06/01 12:05:08;;;;;;;12.48;7.20;;;;;;;-142.57;38.66;115900.28;4879395;29;20067;-84
2023/06/01 12:07:55;;;;;;;11.77;7.20;;;;;;;-142.57;37.92;115900.28;4879692;29;20030;-86
2023/06/01 12:10:21;;;;;;;11.15;7.45;;;;;;;-142.57;38.08;115900.28;4879335;29;20041;-85
2023/06/01 12:12:47;;;;;;;10.32;5.93;;;;;;;-142.57;38.43;115900.28;4864239;29;20029;-87
2023/06/01 12:15:18;;;;;;;12.10;7.28;;;;;;;-142.57;38.17;115900.28;4865819;29;20041;-85
2023/06/01 12:17:49;;;;;;;13.88;7.22;;;;;;;-142.57;38.40;115900.28;4881546;29;20037;-85
2023/06/01 12:20:31;;;;;;;11.90;6.78;;;;;;;-142.57;38.29;115900.28;4850562;29;20045;-83
2023/06/01 12:22:59;;;;;;;12.88;7.00;;;;;;;-142.57;38.13;115900.28;4865216;29;20124;-84
2023/06/01 12:25:25;;;;;;;12.43;7.15;;;;;;;-142.57;38.63;115900.28;4878588;29;20033;-84
2023/06/01 12:28:21;;;;;;;13.23;6.90;;;;;;;-142.57;38.15;115900.28;4881690;29;20081;-84
2023/06/01 12:30:47;;;;;;;16.02;7.57;;;;;;;-142.57;38.47;115900.28;4858330;29;20088;-87
2023/06/01 12:33:35;;;;;;;16.55;7.40;;;;;;;-142.57;38.34;115900.28;4847068;29;20038;-85
2023/06/01 12:36:02;;;;;;;16.60;7.05;;;;;;;-142.57;38.03;115900.28;4879517;29;20570;-84
2023/06/01 12:38:28;;;;;;;12.75;6.70;;;;;;;-142.57;37.73;115900.28;4880370;29;20061;-87
2023/06/01 12:41:07;;;;;;;13.60;6.30;;;;;;;-142.57;37.79;115900.28;4874110;29;20036;-85
2023/06/01 12:43:36;;;;;;;15.82;6.75;;;;;;;-142.57;38.35;115900.28;4868757;29;20085;-82
2023/06/01 12:46:05;;;;;;;10.77;6.50;;;;;;;-142.57;38.64;115900.28;4859090;29;20037;-87
2023/06/01 12:48:35;;;;;;;11.65;6.75;;;;;;;-142.57;38.06;115900.28;4864920;29;20068;-86
2023/06/01 12:51:01;;;;;;;12.52;6.43;;;;;;;-142.57;37.10;115900.28;4882821;29;20033;-86
2023/06/01 12:53:29;;;;;;;20.50;7.28;;;;;;;-142.57;37.78;115900.28;4850561;29;20394;-87
2023/06/01 12:55:55;;;;;;;12.40;5.75;;;;;;;-142.57;38.04;115900.28;4864367;29;20124;-83
2023/06/01 12:58:21;;;;;;;19.30;6.45;;;;;;;-142.57;37.61;115900.28;4847800;29;20041;-86
2023/06/01 13:00:48;;;;;;;16.73;7.07;;;;;;;-142.57;37.58;115900.28;4862506;29;20101;-86
2023/06/01 13:03:14;;;;;;;11.35;5.75;;;;;;;-142.57;37.88;115900.28;4878263;29;20037;-85
2023/06/01 13:05:46;;;;;;;15.80;6.45;;;;;;;-142.57;37.46;115900.28;4880136;29;20033;-87
2023/06/01 13:08:15;;;;;;;14.15;6.90;;;;;;;-142.57;37.81;115900.28;4846811;29;20045;-89
2023/06/01 13:10:41;;;;;;;15.30;7.45;;;;;;;-142.57;38.49;115900.28;4867465;29;20041;-86
2023/06/01 13:13:08;;;;;;;11.25;6.50;;;;;;;-142.57;38.65;115900.28;4877322;29;20033;-86
2023/06/01 13:15:35;;;;;;;15.70;6.78;;;;;;;-142.57;38.02;115900.28;4885238;29;20044;-88
2023/06/01 13:18:01;;;;;;;11.48;6.53;;;;;;;-142.57;37.70;115900.28;4866608;29;20032;-88
2023/06/01 13:20:32;;;;;;;14.75;7.00;;;;;;;-142.57;38.28;115900.28;4880612;29;20045;-87
2023/06/01 13:23:01;;;;;;;16.27;6.93;;;;;;;-142.57;38.29;115900.28;4850299;29;20048;-88
2023/06/01 13:25:27;;;;;;;15.45;6.13;;;;;;;-142.57;37.53;115900.28;4872060;29;20040;-88
2023/06/01 13:27:53;;;;;;;9.40;5.63;;;;;;;-142.57;37.02;115900.28;4889848;29;20120;-89
2023/06/01 13:30:20;;;;;;;8.23;5.28;;;;;;;-142.57;36.72;115900.28;4883039;29;20821;-89
2023/06/01 13:32:50;;;;;;;12.52;5.40;;;;;;;-142.57;36.99;115900.28;4878883;29;20033;-91
2023/06/01 13:35:19;;;;;;;15.23;5.68;;;;;;;-142.57;36.65;115900.28;5008933;23;20073;-84
2023/06/01 13:37:49;;;;;;;12.25;5.90;;;;;;;-142.57;37.03;115900.28;4904454;29;20032;-86
2023/06/01 13:40:18;;;;;;;11.48;5.85;;;;;;;-142.57;37.29;115900.28;4886414;29;20041;-87
2023/06/01 13:42:44;;;;;;;23.08;6.88;;;;;;;-142.57;37.23;115900.28;4893061;29;20017;-83
2023/06/01 13:45:11;;;;;;;15.38;5.70;;;;;;;-142.57;37.34;115900.28;4906281;29;20035;-89
2023/06/01 13:47:37;;;;;;;13.60;6.25;;;;;;;-142.57;37.20;115900.28;4900605;29;20041;-88
2023/06/01 13:50:07;;;;;;;14.73;6.68;;;;;;;-142.57;37.48;115900.28;4901263;29;20044;-87
2023/06/01 13:52:34;;;;;;;11.32;5.93;;;;;;;-142.57;37.89;115900.28;4898032;29;20052;-82
2023/06/01 13:54:59;;;;;;;11.43;5.45;;;;;;;-142.57;37.79;115900.28;4896840;29;20040;-83
2023/06/01 13:57:25;;;;;;;10.65;6.13;;;;;;;-142.57;37.82;115900.28;4880192;29;20059;-86
2023/06/01 13:59:50;;;;;;;11.18;6.03;;;;;;;-142.57;37.72;115900.28;4878116;29;20038;-85
2023/06/01 14:02:16;;;;;;;13.43;6.70;;;;;;;-142.57;37.79;115900.28;4897770;29;20036;-87
2023/06/01 14:04:41;;;;;;;11.40;6.15;;;;;;;-142.57;37.54;115900.28;4896858;29;20055;-87
2023/06/01 14:07:08;;;;;;;9.93;5.13;;;;;;;-142.57;36.67;115900.28;4902321;29;20058;-88
2023/06/01 14:09:33;;;;;;;9.07;5.25;;;;;;;-142.57;36.06;115900.28;4904711;29;20032;-89
2023/06/01 14:11:59;;;;;;;12.10;5.47;;;;;;;-142.57;36.35;115900.28;4883190;29;20064;-88
2023/06/01 14:14:24;;;;;;;10.75;6.03;;;;;;;-142.57;37.09;115900.28;4885510;29;20040;-89
2023/06/01 14:16:50;;;;;;;10.57;5.60;;;;;;;-142.57;37.06;115900.28;4894887;29;20036;-87
2023/06/01 14:19:16;;;;;;;11.02;5.85;;;;;;;-142.57;37.23;115900.28;4900463;29;20044;-88
2023/06/01 14:21:41;;;;;;;12.68;5.85;;;;;;;-142.57;37.18;115900.28;4884402;29;20049;-87
2023/06/01 14:24:07;;;;;;;9.68;5.97;;;;;;;-142.57;37.34;115900.28;4899565;29;20024;-89
2023/06/01 14:26:32;;;;;;;12.75;6.00;;;;;;;-142.57;38.08;115900.28;4883169;29;20056;-88
2023/06/01 14:28:58;;;;;;;10.50;6.05;;;;;;;-142.57;37.23;115900.28;4872032;29;20161;-88
2023/06/01 14:31:23;;;;;;;11.38;5.90;;;;;;;-142.57;37.27;115900.28;4841344;29;20065;-85
2023/06/01 14:33:49;;;;;;;10.57;5.75;;;;;;;-142.57;37.35;115900.28;4883316;29;20123;-89
2023/06/01 14:36:15;;;;;;;10.93;5.90;;;;;;;-142.57;37.39;115900.28;4882541;29;20040;-83
2023/06/01 14:38:41;;;;;;;15.55;5.97;;;;;;;-142.57;37.13;115900.28;4882283;29;20047;-86
2023/06/01 14:41:07;;;;;;;10.98;5.47;;;;;;;-142.57;36.84;115900.28;4903475;29;20036;-87
2023/06/01 14:43:33;;;;;;;11.38;6.05;;;;;;;-142.57;37.04;115900.28;4863923;29;20041;-89
2023/06/01 14:46:01;;;;;;;18.20;5.55;;;;;;;-142.57;37.40;115900.28;4866249;29;20466;-89
2023/06/01 14:48:27;;;;;;;13.88;5.93;;;;;;;-142.57;37.56;115900.28;4884884;29;20044;-86
2023/06/01 14:50:52;;;;;;;18.63;6.35;;;;;;;-142.57;36.88;115900.28;4868218;29;20134;-88
2023/06/01 14:53:18;;;;;;;10.52;6.00;;;;;;;-142.57;37.30;115900.28;4883460;29;20040;-87
2023/06/01 14:55:44;;;;;;;8.88;5.40;;;;;;;-142.57;37.10;115900.28;4882819;29;20044;-86
2023/06/01 14:58:10;;;;;;;11.55;5.95;;;;;;;-142.57;36.75;115900.28;4897954;29;20055;-86
2023/06/01 15:00:39;;;;;;;11.43;5.68;;;;;;;-142.57;36.54;115900.28;4868454;29;20100;-88
2023/06/01 15:03:05;;;;;;;8.27;6.03;;;;;;;-142.57;37.14;115900.28;4905059;29;20036;-88
2023/06/01 15:05:30;;;;;;;11.45;6.00;;;;;;;-142.57;37.25;115900.28;4900423;29;20040;-86
2023/06/01 15:07:56;;;;;;;11.57;5.75;;;;;;;-142.57;37.42;115900.28;4883423;29;20455;-86
2023/06/01 15:10:21;;;;;;;10.10;6.32;;;;;;;-142.57;37.34;115900.28;4901885;29;20059;-86
2023/06/01 15:12:47;;;;;;;12.60;5.28;;;;;;;-142.57;37.66;115900.28;4900680;29;20100;-87
2023/06/01 15:15:13;;;;;;;10.27;6.53;;;;;;;-142.57;37.21;115900.28;4884535;29;20044;-86
2023/06/01 15:17:39;;;;;;;11.98;6.00;;;;;;;-142.57;37.60;115900.28;4895986;29;20099;-87
2023/06/01 15:20:06;;;;;;;15.30;6.60;;;;;;;-142.57;37.08;115900.28;4879511;29;20048;-86
2023/06/01 15:22:31;;;;;;;12.55;5.95;;;;;;;-142.57;37.23;115900.28;4896851;29;20088;-86
2023/06/01 15:24:57;;;;;;;12.02;5.95;;;;;;;-142.57;37.79;115900.28;4880045;29;20137;-86
2023/06/01 15:27:23;;;;;;;8.63;5.35;;;;;;;-142.57;37.52;115900.28;4895043;29;20040;-87
2023/06/01 15:29:49;;;;;;;10.05;5.63;;;;;;;-142.57;37.38;115900.28;4893799;29;20379;-85
2023/06/01 15:32:14;;;;;;;10.15;6.05;;;;;;;-142.57;37.36;115900.28;4876713;29;20044;-86
2023/06/01 15:34:41;;;;;;;14.23;6.38;;;;;;;-142.57;37.55;115900.28;4894358;29;20045;-86
2023/06/01 15:37:11;;;;;;;10.30;5.95;;;;;;;-142.57;36.83;115900.28;4881157;29;20065;-88
2023/06/01 15:39:38;;;;;;;10.77;5.68;;;;;;;-142.57;36.95;115900.28;4862263;29;20197;-83
2023/06/01 15:42:05;;;;;;;11.07;5.63;;;;;;;-142.57;36.50;115900.28;4879689;29;20048;-86
2023/06/01 15:44:31;;;;;;;17.90;5.38;;;;;;;-142.57;36.27;115900.28;4882169;29;20376;-87
2023/06/01 15:46:57;;;;;;;10.70;5.97;;;;;;;-142.57;36.02;115900.28;4898170;29;20060;-88
2023/06/01 15:49:22;;;;;;;11.23;5.88;;;;;;;-142.57;36.29;115900.28;4887538;29;20094;-87
2023/06/01 15:51:48;;;;;;;14.80;7.00;;;;;;;-142.57;36.76;115900.28;4904776;29;20117;-85
2023/06/01 15:54:14;;;;;;;8.75;5.53;;;;;;;-142.57;36.52;115900.28;4904705;29;20032;-88
2023/06/01 15:56:39;;;;;;;15.70;6.80;;;;;;;-142.57;36.88;115900.28;4886875;29;20136;-86
2023/06/01 15:59:05;;;;;;;16.02;6.63;;;;;;;-142.57;36.81;115900.28;4903743;29;20474;-89
2023/06/01 16:01:31;;;;;;;14.57;7.28;;;;;;;-142.57;36.91;115900.28;4902786;29;20398;-86
2023/06/01 16:03:56;;;;;;;10.70;5.97;;;;;;;-142.57;37.50;115900.28;4906428;29;20041;-84
2023/06/01 16:06:22;;;;;;;12.90;5.75;;;;;;;-142.57;37.21;115900.28;4885788;29;20119;-85
2023/06/01 16:08:50;;;;;;;11.43;5.47;;;;;;;-142.57;37.12;115900.28;4908092;29;20152;-86
2023/06/01 16:11:41;;;;;;;14.75;5.60;;;;;;;-142.57;35.78;115900.28;4913072;29;20029;-87
2023/06/01 16:14:08;;;;;;;18.35;6.63;;;;;;;-142.57;36.66;115900.28;4915606;29;20049;-85
2023/06/01 16:16:36;;;;;;;13.90;5.65;;;;;;;-142.57;36.68;115900.28;4900943;29;20065;-83
2023/06/01 16:19:17;;;;;;;11.27;5.93;;;;;;;-142.57;37.13;115900.28;4897772;29;20040;-82
2023/06/01 16:21:45;;;;;;;10.73;5.65;;;;;;;-142.57;37.31;115900.28;4899699;29;20045;-82
2023/06/01 16:24:36;;;;;;;9.85;5.90;;;;;;;-142.57;37.09;115900.28;4905502;29;20037;-81
2023/06/01 16:27:01;;;;;;;8.68;5.63;;;;;;;-142.57;37.19;115900.28;4887962;29;20049;-83
2023/06/01 16:29:27;;;;;;;8.60;5.72;;;;;;;-142.57;37.19;115900.28;4903803;29;20115;-84
2023/06/01 16:32:01;;;;;;;9.50;5.50;;;;;;;-142.57;37.04;115900.28;4903600;29;20048;-85
2023/06/01 16:34:27;;;;;;;11.82;5.78;;;;;;;-142.57;37.10;115900.28;4903339;29;20529;-85
2023/06/01 16:36:53;;;;;;;11.40;5.65;;;;;;;-142.57;37.66;115900.28;4902762;29;20160;-83
2023/06/01 16:39:19;;;;;;;9.38;5.47;;;;;;;-142.57;38.30;115900.28;4903400;29;20103;-82
2023/06/01 16:41:44;;;;;;;14.63;6.80;;;;;;;-142.57;38.17;115900.28;4885640;29;20041;-82
2023/06/01 16:44:12;;;;;;;10.70;6.55;;;;;;;-142.57;37.98;115900.28;4904164;29;20032;-83
2023/06/01 16:46:38;;;;;;;15.13;5.78;;;;;;;-142.57;38.38;115900.28;4886537;29;20077;-82
2023/06/01 16:49:05;;;;;;;15.48;6.13;;;;;;;-142.57;38.00;115900.28;4902495;29;20116;-83
2023/06/01 16:51:31;;;;;;;10.18;5.25;;;;;;;-142.57;38.20;115900.28;4904036;29;20032;-83
2023/06/01 16:54:04;;;;;;;15.65;6.05;;;;;;;-142.57;38.89;115900.28;4902991;29;20096;-84
2023/06/01 16:56:30;;;;;;;12.82;5.85;;;;;;;-142.57;37.90;115900.28;4902456;29;20056;-81
2023/06/01 16:59:01;;;;;;;16.92;7.18;;;;;;;-142.57;38.66;115900.28;4901354;29;20041;-84
2023/06/01 17:01:26;;;;;;;16.30;6.10;;;;;;;-142.57;38.02;115900.28;4904179;29;20029;-81
2023/06/01 17:03:53;;;;;;;14.98;6.75;;;;;;;-142.57;38.38;115900.28;4900006;29;20040;-83
2023/06/01 17:06:20;;;;;;;19.58;8.30;;;;;;;-142.57;38.56;115900.28;4883584;29;20482;-84
2023/06/01 17:08:46;;;;;;;12.00;7.18;;;;;;;-142.57;38.10;115900.28;4901611;29;20430;-84
2023/06/01 17:11:14;;;;;;;12.18;6.70;;;;;;;-142.57;38.19;115900.28;4901087;29;20056;-85
2023/06/01 17:13:40;;;;;;;30.90;7.63;;;;;;;-142.57;38.37;115900.28;4898410;29;20040;-84
2023/06/01 17:16:06;;;;;;;15.90;6.65;;;;;;;-142.57;38.80;115900.28;4880965;29;20067;-87
2023/06/01 17:18:35;;;;;;;16.65;6.97;;;;;;;-142.57;39.43;115900.28;4906879;29;20036;-83
2023/06/01 17:21:01;;;;;;;22.67;7.63;;;;;;;-142.57;39.16;115900.28;4907334;29;20060;-85
2023/06/01 17:23:30;;;;;;;11.90;6.15;;;;;;;-142.57;38.96;115900.28;4886646;29;20052;-84
2023/06/01 17:25:56;;;;;;;9.48;6.00;;;;;;;-142.57;39.00;115900.28;4890438;29;20041;-86
2023/06/01 17:28:22;;;;;;;17.13;6.80;;;;;;;-142.57;39.53;115900.28;4884032;29;20083;-84
2023/06/01 17:30:47;;;;;;;10.38;6.88;;;;;;;-142.57;39.63;115900.28;4905160;29;20044;-84
2023/06/01 17:33:13;;;;;;;10.15;6.30;;;;;;;-142.57;39.25;115900.28;4896964;29;20048;-86
2023/06/01 17:35:48;;;;;;;19.50;6.53;;;;;;;-142.57;38.90;115900.28;4900713;29;20056;-87
2023/06/01 17:38:13;;;;;;;19.55;6.68;;;;;;;-142.57;38.87;115900.28;4886193;29;20080;-85
2023/06/01 17:40:39;;;;;;;12.15;6.40;;;;;;;-142.57;39.34;115900.28;4887751;29;20044;-86
2023/06/01 17:43:05;;;;;;;12.73;6.97;;;;;;;-142.57;39.80;115900.28;4888430;29;20068;-83
2023/06/01 17:45:31;;;;;;;18.45;7.45;;;;;;;-142.57;39.69;115900.28;4891405;29;20033;-84
2023/06/01 17:47:59;;;;;;;15.27;6.88;;;;;;;-142.57;39.29;115900.28;4901651;29;20153;-82
2023/06/01 17:50:24;;;;;;;15.82;6.38;;;;;;;-142.57;39.88;115900.28;4869070;29;20379;-84
2023/06/01 17:52:50;;;;;;;15.75;6.63;;;;;;;-142.57;39.62;115900.28;4900329;29;20044;-81
2023/06/01 17:55:16;;;;;;;12.02;6.53;;;;;;;-142.57;39.62;115900.28;4899608;29;20036;-82
2023/06/01 17:57:41;;;;;;;11.38;6.57;;;;;;;-142.57;39.26;115900.28;4899077;29;20480;-83
2023/06/01 18:00:08;;;;;;;13.18;6.65;;;;;;;-142.57;39.17;115900.28;4899328;29;20100;-80
2023/06/01 18:02:34;;;;;;;12.43;6.68;;;;;;;-142.57;38.90;115900.28;4882436;29;20041;-84
2023/06/01 18:05:00;;;;;;;12.02;6.88;;;;;;;-142.57;38.36;115900.28;4902055;29;20055;-81
2023/06/01 18:07:28;;;;;;;12.90;6.20;;;;;;;-142.57;38.42;115900.28;4898673;29;20032;-83
2023/06/01 18:09:54;;;;;;;10.63;6.28;;;;;;;-142.57;38.37;115900.28;4881619;29;20112;-83
2023/06/01 18:12:21;;;;;;;16.73;6.32;;;;;;;-142.57;38.42;115900.28;4881961;29;20053;-85
2023/06/01 18:14:46;;;;;;;12.23;6.25;;;;;;;-142.57;38.13;115900.28;4899015;29;20043;-82
2023/06/01 18:17:13;;;;;;;11.07;5.97;;;;;;;-142.57;38.41;115900.28;4899303;29;20029;-84
2023/06/01 18:19:42;;;;;;;10.32;6.10;;;;;;;-142.57;38.65;115900.28;4899603;29;20063;-83
2023/06/01 18:22:08;;;;;;;8.95;5.85;;;;;;;-142.57;39.16;115900.28;4899495;29;20032;-83
2023/06/01 18:24:34;;;;;;;16.85;6.63;;;;;;;-142.57;38.54;115900.28;4898327;29;20037;-82
2023/06/01 18:26:59;;;;;;;13.98;6.32;;;;;;;-142.57;38.60;115900.28;4881704;29;20028;-84
2023/06/01 18:29:25;;;;;;;12.77;6.30;;;;;;;-142.57;39.72;115900.28;4901104;29;20391;-88
2023/06/01 18:31:52;;;;;;;17.73;6.93;;;;;;;-142.57;40.18;115900.28;4874282;29;20119;-87
2023/06/01 18:34:20;;;;;;;17.83;7.22;;;;;;;-142.57;39.83;115900.28;4882458;29;20036;-87
2023/06/01 18:36:46;;;;;;;19.33;7.00;;;;;;;-142.57;40.18;115900.28;4900719;29;20043;-84
2023/06/01 18:39:12;;;;;;;17.48;6.55;;;;;;;-142.57;40.76;115900.28;4899653;29;20037;-84
2023/06/01 18:41:42;;;;;;;15.48;7.03;;;;;;;-142.57;41.50;115900.28;4897511;29;20036;-83
2023/06/01 18:44:10;;;;;;;12.60;6.80;;;;;;;-142.57;42.61;115900.28;4882554;29;20036;-84
2023/06/01 18:46:37;;;;;;;24.65;6.65;;;;;;;-142.57;43.30;115900.28;4899953;29;20080;-86